createdAt,value
2024-04-19T00:00:28.293Z,487.00
2024-04-19T00:01:28.124Z,487.00
2024-04-19T00:02:28.053Z,485.00
2024-04-19T00:03:28.279Z,483.00
2024-04-19T00:04:28.226Z,483.00
2024-04-19T00:05:28.121Z,483.00
2024-04-19T00:06:28.180Z,483.00
2024-04-19T00:07:28.150Z,483.00
2024-04-19T00:08:28.169Z,479.00
2024-04-19T00:09:28.299Z,479.00
2024-04-19T00:10:28.235Z,481.00
2024-04-19T00:11:28.282Z,481.00
2024-04-19T00:12:28.247Z,481.00
2024-04-19T00:13:28.190Z,481.00
2024-04-19T00:14:28.265Z,484.00
2024-04-19T00:15:28.262Z,485.00
2024-04-19T00:16:28.232Z,488.00
2024-04-19T00:17:28.269Z,491.00
2024-04-19T00:18:28.330Z,489.00
2024-04-19T00:19:28.287Z,489.00
2024-04-19T00:20:28.334Z,488.00
2024-04-19T00:21:28.340Z,491.00
2024-04-19T00:22:28.274Z,494.00
2024-04-19T00:23:28.298Z,495.00
2024-04-19T00:24:28.360Z,495.00
2024-04-19T00:25:28.339Z,492.00
2024-04-19T00:26:28.336Z,489.00
2024-04-19T00:27:28.368Z,489.00
2024-04-19T00:28:28.378Z,490.00
2024-04-19T00:29:28.400Z,488.00
2024-04-19T00:30:28.439Z,487.00
2024-04-19T00:31:28.425Z,490.00
2024-04-19T00:32:28.440Z,489.00
2024-04-19T00:33:28.721Z,486.00
2024-04-19T00:34:28.590Z,483.00
2024-04-19T00:35:28.503Z,484.00
2024-04-19T00:36:28.588Z,485.00
2024-04-19T00:37:28.528Z,486.00
2024-04-19T00:38:28.484Z,484.00
2024-04-19T00:39:28.611Z,483.00
2024-04-19T00:40:28.534Z,480.00
2024-04-19T00:41:28.587Z,479.00
2024-04-19T00:42:28.597Z,479.00
2024-04-19T00:43:28.574Z,480.00
2024-04-19T00:44:28.611Z,479.00
2024-04-19T00:45:28.702Z,483.00
2024-04-19T00:46:28.620Z,484.00
2024-04-19T00:47:28.840Z,484.00
2024-04-19T00:48:28.692Z,485.00
2024-04-19T00:49:28.723Z,484.00
2024-04-19T00:50:28.714Z,485.00
2024-04-19T00:51:28.740Z,485.00
2024-04-19T00:52:28.726Z,486.00
2024-04-19T00:53:28.743Z,485.00
2024-04-19T00:54:28.810Z,487.00
2024-04-19T00:55:28.811Z,487.00
2024-04-19T00:56:29.770Z,487.00
2024-04-19T00:57:28.817Z,487.00
2024-04-19T00:58:28.824Z,488.00
2024-04-19T00:59:28.871Z,486.00
2024-04-19T01:00:28.974Z,486.00
2024-04-19T01:01:29.007Z,486.00
2024-04-19T01:02:28.920Z,485.00
2024-04-19T01:03:28.996Z,487.00
2024-04-19T01:04:29.010Z,488.00
2024-04-19T01:05:29.018Z,488.00
2024-04-19T01:06:29.153Z,488.00
2024-04-19T01:07:29.270Z,489.00
2024-04-19T01:08:29.053Z,489.00
2024-04-19T01:09:29.132Z,488.00
2024-04-19T01:10:29.051Z,490.00
2024-04-19T01:11:29.165Z,490.00
2024-04-19T01:12:29.184Z,488.00
2024-04-19T01:13:29.114Z,486.00
2024-04-19T01:14:29.193Z,488.00
2024-04-19T01:15:29.224Z,489.00
2024-04-19T01:16:29.283Z,489.00
2024-04-19T01:17:29.432Z,488.00
2024-04-19T01:18:29.363Z,486.00
2024-04-19T01:19:29.337Z,486.00
2024-04-19T01:20:29.343Z,485.00
2024-04-19T01:21:29.377Z,486.00
2024-04-19T01:22:29.340Z,484.00
2024-04-19T01:23:29.400Z,483.00
2024-04-19T01:24:29.448Z,483.00
2024-04-19T01:25:29.405Z,483.00
2024-04-19T01:26:29.473Z,483.00
2024-04-19T01:27:29.521Z,484.00
2024-04-19T01:28:29.484Z,485.00
2024-04-19T01:29:29.517Z,486.00
2024-04-19T01:30:29.593Z,487.00
2024-04-19T01:31:29.608Z,487.00
2024-04-19T01:32:29.614Z,487.00
2024-04-19T01:33:29.726Z,487.00
2024-04-19T01:34:29.680Z,487.00
2024-04-19T01:35:29.758Z,486.00
2024-04-19T01:36:29.719Z,484.00
2024-04-19T01:37:29.750Z,483.00
2024-04-19T01:38:29.746Z,483.00
2024-04-19T01:39:29.914Z,486.00
2024-04-19T01:40:29.779Z,487.00
2024-04-19T01:41:29.785Z,487.00
2024-04-19T01:42:29.867Z,488.00
2024-04-19T01:43:29.833Z,490.00
2024-04-19T01:44:29.900Z,490.00
2024-04-19T01:45:29.920Z,489.00
2024-04-19T01:46:29.968Z,490.00
2024-04-19T01:47:29.970Z,489.00
2024-04-19T01:48:30.034Z,487.00
2024-04-19T01:49:30.056Z,485.00
2024-04-19T01:50:30.102Z,485.00
2024-04-19T01:51:30.107Z,484.00
2024-04-19T01:52:30.055Z,487.00
2024-04-19T01:53:30.066Z,487.00
2024-04-19T01:54:30.160Z,488.00
2024-04-19T01:55:30.118Z,488.00
2024-04-19T01:56:30.146Z,490.00
2024-04-19T01:57:30.179Z,488.00
2024-04-19T01:58:30.204Z,487.00
2024-04-19T01:59:30.213Z,488.00
2024-04-19T02:00:30.310Z,491.00
2024-04-19T02:01:30.371Z,491.00
2024-04-19T02:02:30.340Z,493.00
2024-04-19T02:03:30.322Z,491.00
2024-04-19T02:04:30.393Z,488.00
2024-04-19T02:05:30.306Z,487.00
2024-04-19T02:06:30.419Z,487.00
2024-04-19T02:07:30.419Z,490.00
2024-04-19T02:08:30.424Z,491.00
2024-04-19T02:09:30.523Z,488.00
2024-04-19T02:10:30.491Z,486.00
2024-04-19T02:11:30.592Z,487.00
2024-04-19T02:12:30.610Z,488.00
2024-04-19T02:13:30.612Z,484.00
2024-04-19T02:14:30.594Z,486.00
2024-04-19T02:15:30.633Z,486.00
2024-04-19T02:16:30.658Z,487.00
2024-04-19T02:17:30.898Z,488.00
2024-04-19T02:18:30.914Z,489.00
2024-04-19T02:19:30.754Z,488.00
2024-04-19T02:20:30.708Z,488.00
2024-04-19T02:21:30.845Z,489.00
2024-04-19T02:22:30.810Z,488.00
2024-04-19T02:23:30.825Z,488.00
2024-04-19T02:24:30.861Z,485.00
2024-04-19T02:25:30.869Z,484.00
2024-04-19T02:26:30.924Z,486.00
2024-04-19T02:27:31.020Z,487.00
2024-04-19T02:28:30.968Z,484.00
2024-04-19T02:29:30.975Z,486.00
2024-04-19T02:30:31.061Z,484.00
2024-04-19T02:31:31.041Z,484.00
2024-04-19T02:32:31.100Z,484.00
2024-04-19T02:33:31.196Z,487.00
2024-04-19T02:34:31.060Z,486.00
2024-04-19T02:35:31.162Z,484.00
2024-04-19T02:36:31.145Z,485.00
2024-04-19T02:37:31.183Z,486.00
2024-04-19T02:38:31.194Z,485.00
2024-04-19T02:39:31.263Z,484.00
2024-04-19T02:40:31.270Z,484.00
2024-04-19T02:41:31.270Z,486.00
2024-04-19T02:42:31.346Z,485.00
2024-04-19T02:43:31.326Z,486.00
2024-04-19T02:44:31.355Z,489.00
2024-04-19T02:45:33.628Z,489.00
2024-04-19T02:46:31.467Z,488.00
2024-04-19T02:47:31.454Z,486.00
2024-04-19T02:48:31.455Z,485.00
2024-04-19T02:49:31.471Z,484.00
2024-04-19T02:50:31.431Z,484.00
2024-04-19T02:51:31.402Z,484.00
2024-04-19T02:52:31.387Z,484.00
2024-04-19T02:53:31.396Z,487.00
2024-04-19T02:54:31.505Z,487.00
2024-04-19T02:55:31.402Z,484.00
2024-04-19T02:56:31.437Z,484.00
2024-04-19T02:57:31.447Z,485.00
2024-04-19T02:58:31.400Z,483.00
2024-04-19T02:59:31.451Z,485.00
2024-04-19T03:00:31.574Z,487.00
2024-04-19T03:01:31.450Z,491.00
2024-04-19T03:02:31.446Z,489.00
2024-04-19T03:03:31.547Z,488.00
2024-04-19T03:04:31.481Z,488.00
2024-04-19T03:05:31.457Z,487.00
2024-04-19T03:06:31.491Z,487.00
2024-04-19T03:07:31.469Z,488.00
2024-04-19T03:08:31.406Z,487.00
2024-04-19T03:09:31.451Z,486.00
2024-04-19T03:10:31.415Z,487.00
2024-04-19T03:11:31.472Z,487.00
2024-04-19T03:12:31.447Z,486.00
2024-04-19T03:13:31.452Z,486.00
2024-04-19T03:14:31.426Z,486.00
2024-04-19T03:15:31.468Z,489.00
2024-04-19T03:16:31.459Z,488.00
2024-04-19T03:17:31.516Z,490.00
2024-04-19T03:18:31.460Z,489.00
2024-04-19T03:19:31.402Z,485.00
2024-04-19T03:20:31.443Z,483.00
2024-04-19T03:21:31.501Z,481.00
2024-04-19T03:22:31.449Z,482.00
2024-04-19T03:23:31.435Z,484.00
2024-04-19T03:24:31.460Z,484.00
2024-04-19T03:25:31.456Z,484.00
2024-04-19T03:26:33.191Z,485.00
2024-04-19T03:27:31.438Z,485.00
2024-04-19T03:28:31.422Z,484.00
2024-04-19T03:29:31.432Z,484.00
2024-04-19T03:30:31.484Z,485.00
2024-04-19T03:31:31.449Z,487.00
2024-04-19T03:32:31.520Z,488.00
2024-04-19T03:33:31.628Z,486.00
2024-04-19T03:34:31.463Z,485.00
2024-04-19T03:35:31.423Z,485.00
2024-04-19T03:36:31.498Z,484.00
2024-04-19T03:37:31.445Z,484.00
2024-04-19T03:38:31.493Z,485.00
2024-04-19T03:39:31.509Z,484.00
2024-04-19T03:40:31.459Z,481.00
2024-04-19T03:41:31.485Z,481.00
2024-04-19T03:42:31.476Z,480.00
2024-04-19T03:43:31.496Z,480.00
2024-04-19T03:44:31.462Z,482.00
2024-04-19T03:45:31.538Z,480.00
2024-04-19T03:46:31.450Z,481.00
2024-04-19T03:47:31.524Z,480.00
2024-04-19T03:48:31.629Z,481.00
2024-04-19T03:49:31.443Z,482.00
2024-04-19T03:50:31.450Z,480.00
2024-04-19T03:51:31.510Z,481.00
2024-04-19T03:52:31.460Z,483.00
2024-04-19T03:53:31.531Z,484.00
2024-04-19T03:54:31.468Z,484.00
2024-04-19T03:55:31.456Z,484.00
2024-04-19T03:56:31.461Z,483.00
2024-04-19T03:57:31.493Z,481.00
2024-04-19T03:58:31.448Z,481.00
2024-04-19T03:59:31.468Z,482.00
2024-04-19T04:00:31.462Z,481.00
2024-04-19T04:01:31.565Z,486.00
2024-04-19T04:02:31.490Z,486.00
2024-04-19T04:03:31.485Z,486.00
2024-04-19T04:04:31.484Z,485.00
2024-04-19T04:05:31.478Z,488.00
2024-04-19T04:06:31.516Z,487.00
2024-04-19T04:07:31.464Z,489.00
2024-04-19T04:08:31.556Z,489.00
2024-04-19T04:09:31.514Z,487.00
2024-04-19T04:10:31.497Z,487.00
2024-04-19T04:11:31.491Z,488.00
2024-04-19T04:12:31.492Z,488.00
2024-04-19T04:13:31.476Z,489.00
2024-04-19T04:14:31.510Z,490.00
2024-04-19T04:15:31.527Z,490.00
2024-04-19T04:16:31.498Z,491.00
2024-04-19T04:17:31.557Z,491.00
2024-04-19T04:18:31.593Z,493.00
2024-04-19T04:19:31.461Z,494.00
2024-04-19T04:20:31.505Z,495.00
2024-04-19T04:21:31.501Z,495.00
2024-04-19T04:22:31.510Z,494.00
2024-04-19T04:23:31.516Z,493.00
2024-04-19T04:24:31.492Z,493.00
2024-04-19T04:25:31.482Z,493.00
2024-04-19T04:26:31.506Z,495.00
2024-04-19T04:27:31.569Z,496.00
2024-04-19T04:28:31.536Z,496.00
2024-04-19T04:29:31.593Z,493.00
2024-04-19T04:30:31.619Z,492.00
2024-04-19T04:31:31.510Z,493.00
2024-04-19T04:32:31.579Z,494.00
2024-04-19T04:33:31.568Z,494.00
2024-04-19T04:34:31.615Z,494.00
2024-04-19T04:35:31.652Z,495.00
2024-04-19T04:36:31.721Z,496.00
2024-04-19T04:37:31.755Z,497.00
2024-04-19T04:38:31.770Z,499.00
2024-04-19T04:39:39.099Z,502.00
2024-04-19T04:40:39.031Z,502.00
2024-04-19T04:41:39.037Z,502.00
2024-04-19T04:42:39.914Z,500.00
2024-04-19T04:43:39.062Z,501.00
2024-04-19T04:44:39.077Z,497.00
2024-04-19T04:45:39.125Z,495.00
2024-04-19T04:46:39.109Z,494.00
2024-04-19T04:47:39.207Z,494.00
2024-04-19T04:48:39.074Z,493.00
2024-04-19T04:49:39.070Z,493.00
2024-04-19T04:50:39.065Z,492.00
2024-04-19T04:51:39.062Z,492.00
2024-04-19T04:52:39.079Z,493.00
2024-04-19T04:53:39.051Z,494.00
2024-04-19T04:54:39.068Z,492.00
2024-04-19T04:55:39.052Z,493.00
2024-04-19T04:56:39.052Z,495.00
2024-04-19T04:57:39.782Z,497.00
2024-04-19T04:58:39.112Z,497.00
2024-04-19T04:59:39.067Z,499.00
2024-04-19T05:00:39.180Z,497.00
2024-04-19T05:01:39.088Z,498.00
2024-04-19T05:02:39.111Z,499.00
2024-04-19T05:03:39.106Z,497.00
2024-04-19T05:04:39.095Z,497.00
2024-04-19T05:05:39.056Z,497.00
2024-04-19T05:06:39.107Z,496.00
2024-04-19T05:07:39.082Z,493.00
2024-04-19T05:08:39.074Z,494.00
2024-04-19T05:09:39.180Z,493.00
2024-04-19T05:10:39.147Z,489.00
2024-04-19T05:11:39.226Z,488.00
2024-04-19T05:12:39.316Z,487.00
2024-04-19T05:13:39.273Z,485.00
2024-04-19T05:14:39.328Z,483.00
2024-04-19T05:15:39.409Z,484.00
2024-04-19T05:16:39.411Z,483.00
2024-04-19T05:17:39.555Z,486.00
2024-04-19T05:18:39.555Z,486.00
2024-04-19T05:19:39.585Z,486.00
2024-04-19T05:20:40.316Z,487.00
2024-04-19T05:21:39.706Z,486.00
2024-04-19T05:22:39.654Z,490.00
2024-04-19T05:23:39.762Z,492.00
2024-04-19T05:24:39.877Z,494.00
2024-04-19T05:25:39.806Z,495.00
2024-04-19T05:26:39.864Z,496.00
2024-04-19T05:27:39.951Z,495.00
2024-04-19T05:28:39.938Z,493.00
2024-04-19T05:29:39.970Z,495.00
2024-04-19T05:30:40.102Z,496.00
2024-04-19T05:31:40.227Z,494.00
2024-04-19T05:32:40.231Z,495.00
2024-04-19T05:33:40.271Z,500.00
2024-04-19T05:34:40.216Z,502.00
2024-04-19T05:35:40.319Z,508.00
2024-04-19T05:36:40.325Z,554.00
2024-04-19T05:37:40.357Z,576.00
2024-04-19T05:38:40.413Z,640.00
2024-04-19T05:39:40.742Z,633.00
2024-04-19T05:40:40.544Z,621.00
2024-04-19T05:41:40.605Z,619.00
2024-04-19T05:42:40.662Z,616.00
2024-04-19T05:43:40.665Z,619.00
2024-04-19T05:44:40.678Z,618.00
2024-04-19T05:45:40.728Z,619.00
2024-04-19T05:46:40.706Z,624.00
2024-04-19T05:47:40.760Z,633.00
2024-04-19T05:48:40.875Z,673.00
2024-04-19T05:49:40.786Z,699.00
2024-04-19T05:50:40.803Z,704.00
2024-04-19T05:51:40.875Z,712.00
2024-04-19T05:52:40.805Z,715.00
2024-04-19T05:53:40.863Z,717.00
2024-04-19T05:54:40.973Z,717.00
2024-04-19T05:55:41.282Z,716.00
2024-04-19T05:56:41.198Z,715.00
2024-04-19T05:57:41.102Z,718.00
2024-04-19T05:58:41.069Z,722.00
2024-04-19T05:59:41.187Z,724.00
2024-04-19T06:00:41.338Z,730.00
2024-04-19T06:01:43.292Z,735.00
2024-04-19T06:02:41.411Z,740.00
2024-04-19T06:03:41.499Z,743.00
2024-04-19T06:04:41.408Z,747.00
2024-04-19T06:05:41.559Z,753.00
2024-04-19T06:06:41.777Z,761.00
2024-04-19T06:07:41.736Z,770.00
2024-04-19T06:08:41.643Z,777.00
2024-04-19T06:09:41.773Z,780.00
2024-04-19T06:10:41.817Z,787.00
2024-04-19T06:11:42.195Z,798.00
2024-04-19T06:12:41.873Z,802.00
2024-04-19T06:13:42.693Z,805.00
2024-04-19T06:14:41.901Z,807.00
2024-04-19T06:15:41.980Z,815.00
2024-04-19T06:16:42.217Z,819.00
2024-04-19T06:17:42.073Z,826.00
2024-04-19T06:18:42.379Z,830.00
2024-04-19T06:19:42.076Z,852.00
2024-04-19T06:20:42.063Z,891.00
2024-04-19T06:21:42.255Z,880.00
2024-04-19T06:22:42.186Z,878.00
2024-04-19T06:23:42.267Z,872.00
2024-04-19T06:24:42.213Z,874.00
2024-04-19T06:25:42.216Z,877.00
2024-04-19T06:26:42.282Z,885.00
2024-04-19T06:27:42.405Z,889.00
2024-04-19T06:28:42.238Z,891.00
2024-04-19T06:29:42.258Z,891.00
2024-04-19T06:30:42.749Z,893.00
2024-04-19T06:31:42.373Z,895.00
2024-04-19T06:32:42.382Z,900.00
2024-04-19T06:33:42.376Z,902.00
2024-04-19T06:34:42.334Z,899.00
2024-04-19T06:35:42.753Z,905.00
2024-04-19T06:36:42.416Z,912.00
2024-04-19T06:37:42.343Z,929.00
2024-04-19T06:38:43.333Z,1024.00
2024-04-19T06:39:54.376Z,1002.00
2024-04-19T06:40:43.701Z,969.00
2024-04-19T06:41:42.411Z,981.00
2024-04-19T06:42:42.431Z,1032.00
2024-04-19T06:43:42.827Z,983.00
2024-04-19T06:44:42.387Z,979.00
2024-04-19T06:45:42.466Z,996.00
2024-04-19T06:46:42.411Z,1003.00
2024-04-19T06:47:42.459Z,1008.00
2024-04-19T06:48:42.900Z,1013.00
2024-04-19T06:49:42.391Z,1016.00
2024-04-19T06:50:42.784Z,1025.00
2024-04-19T06:52:42.525Z,1033.00
2024-04-19T06:53:42.601Z,1033.00
2024-04-19T06:54:42.625Z,1034.00
2024-04-19T06:55:42.704Z,1036.00
2024-04-19T06:56:42.723Z,1043.00
2024-04-19T06:57:42.877Z,1042.00
2024-04-19T06:58:43.246Z,1042.00
2024-04-19T06:59:42.964Z,1045.00
2024-04-19T07:01:43.091Z,1052.00
2024-04-19T07:02:43.520Z,1057.00
2024-04-19T07:03:43.171Z,1058.00
2024-04-19T07:04:43.181Z,1057.00
2024-04-19T07:05:43.000Z,1059.00
2024-04-19T07:06:45.079Z,1060.00
2024-04-19T07:07:43.064Z,1059.00
2024-04-19T07:08:43.096Z,1059.00
2024-04-19T07:09:43.031Z,1061.00
2024-04-19T07:10:43.013Z,1067.00
2024-04-19T07:11:43.022Z,1073.00
2024-04-19T07:12:43.244Z,1076.00
2024-04-19T07:13:43.153Z,1077.00
2024-04-19T07:14:43.135Z,1074.00
2024-04-19T07:15:43.065Z,1072.00
2024-04-19T07:16:43.095Z,1073.00
2024-04-19T07:17:43.301Z,1069.00
2024-04-19T07:18:43.237Z,1069.00
2024-04-19T07:19:43.113Z,1067.00
2024-04-19T07:20:43.021Z,1070.00
2024-04-19T07:21:43.018Z,1065.00
2024-04-19T07:22:43.065Z,1065.00
2024-04-19T07:23:43.045Z,1064.00
2024-04-19T07:24:43.306Z,1063.00
2024-04-19T07:25:43.050Z,1061.00
2024-04-19T07:26:43.025Z,1061.00
2024-04-19T07:27:46.699Z,1062.00
2024-04-19T07:28:43.004Z,1064.00
2024-04-19T07:29:43.340Z,1069.00
2024-04-19T07:30:43.083Z,1069.00
2024-04-19T07:31:43.052Z,1082.00
2024-04-19T07:32:43.274Z,920.00
2024-04-19T07:33:43.062Z,808.00
2024-04-19T07:34:43.050Z,815.00
2024-04-19T07:35:43.280Z,904.00
2024-04-19T07:36:43.059Z,937.00
2024-04-19T07:37:43.291Z,954.00
2024-04-19T07:38:43.078Z,964.00
2024-04-19T07:39:43.057Z,965.00
2024-04-19T07:40:43.030Z,967.00
2024-04-19T07:41:44.069Z,976.00
2024-04-19T07:42:43.130Z,982.00
2024-04-19T07:43:49.714Z,1020.00
2024-04-19T07:44:44.043Z,1034.00
2024-04-19T07:45:43.136Z,1053.00
2024-04-19T07:46:43.260Z,1062.00
2024-04-19T07:47:43.118Z,1057.00
2024-04-19T07:48:45.821Z,1054.00
2024-04-19T07:49:43.051Z,1060.00
2024-04-19T07:50:43.066Z,1062.00
2024-04-19T07:51:43.116Z,1059.00
2024-04-19T07:52:43.234Z,1060.00
2024-04-19T07:53:43.064Z,1059.00
2024-04-19T07:54:43.069Z,1048.00
2024-04-19T07:55:43.067Z,1033.00
2024-04-19T07:56:43.176Z,1020.00
2024-04-19T07:57:43.158Z,1018.00
2024-04-19T07:58:43.247Z,1015.00
2024-04-19T07:59:43.071Z,1005.00
2024-04-19T08:00:43.243Z,995.00
2024-04-19T08:01:43.144Z,984.00
2024-04-19T08:02:43.127Z,975.00
2024-04-19T08:03:43.437Z,974.00
2024-04-19T08:04:43.214Z,971.00
2024-04-19T08:05:43.050Z,965.00
2024-04-19T08:06:43.337Z,969.00
2024-04-19T08:07:43.070Z,966.00
2024-04-19T08:08:44.762Z,964.00
2024-04-19T08:09:43.105Z,962.00
2024-04-19T08:10:43.097Z,964.00
2024-04-19T08:11:43.071Z,971.00
2024-04-19T08:12:43.111Z,976.00
2024-04-19T08:13:43.278Z,977.00
2024-04-19T08:14:43.870Z,978.00
2024-04-19T08:15:43.417Z,974.00
2024-04-19T08:16:43.173Z,973.00
2024-04-19T08:17:43.127Z,972.00
2024-04-19T08:18:43.353Z,966.00
2024-04-19T08:19:43.093Z,957.00
2024-04-19T08:20:43.113Z,946.00
2024-04-19T08:21:43.106Z,936.00
2024-04-19T08:22:43.047Z,937.00
2024-04-19T08:23:43.087Z,931.00
2024-04-19T08:24:43.171Z,925.00
2024-04-19T08:25:43.306Z,927.00
2024-04-19T08:26:43.080Z,932.00
2024-04-19T08:27:43.174Z,933.00
2024-04-19T08:28:43.092Z,927.00
2024-04-19T08:29:43.090Z,849.00
2024-04-19T08:30:43.348Z,834.00
2024-04-19T08:31:43.683Z,835.00
2024-04-19T08:32:43.155Z,819.00
2024-04-19T08:33:43.226Z,801.00
2024-04-19T08:34:43.289Z,758.00
2024-04-19T08:35:43.266Z,745.00
2024-04-19T08:36:43.279Z,731.00
2024-04-19T08:37:43.394Z,718.00
2024-04-19T08:38:43.401Z,702.00
2024-04-19T08:39:46.445Z,677.00
2024-04-19T08:40:43.463Z,666.00
2024-04-19T08:41:43.438Z,664.00
2024-04-19T08:42:43.463Z,672.00
2024-04-19T08:43:43.431Z,664.00
2024-04-19T08:44:44.295Z,678.00
2024-04-19T08:45:43.443Z,691.00
2024-04-19T08:46:43.502Z,702.00
2024-04-19T08:47:43.494Z,715.00
2024-04-19T08:48:43.527Z,730.00
2024-04-19T08:49:43.800Z,742.00
2024-04-19T08:50:43.441Z,761.00
2024-04-19T08:51:56.260Z,770.00
2024-04-19T08:53:08.710Z,779.00
2024-04-19T08:53:44.497Z,794.00
2024-04-19T08:54:43.983Z,810.00
2024-04-19T08:55:43.783Z,820.00
2024-04-19T08:56:43.508Z,827.00
2024-04-19T08:57:43.527Z,832.00
2024-04-19T08:58:49.841Z,840.00
2024-04-19T08:59:44.490Z,859.00
2024-04-19T09:00:43.910Z,880.00
2024-04-19T09:01:43.517Z,895.00
2024-04-19T09:02:44.052Z,902.00
2024-04-19T09:03:43.861Z,907.00
2024-04-19T09:04:43.530Z,907.00
2024-04-19T09:05:43.477Z,910.00
2024-04-19T09:06:43.507Z,918.00
2024-04-19T09:07:43.455Z,930.00
2024-04-19T09:08:43.474Z,937.00
2024-04-19T09:09:43.849Z,942.00
2024-04-19T09:10:43.517Z,938.00
2024-04-19T09:11:43.496Z,937.00
2024-04-19T09:12:43.635Z,940.00
2024-04-19T09:13:43.500Z,939.00
2024-04-19T09:14:43.809Z,943.00
2024-04-19T09:15:43.544Z,948.00
2024-04-19T09:16:43.573Z,950.00
2024-04-19T09:17:43.579Z,962.00
2024-04-19T09:18:43.514Z,967.00
2024-04-19T09:19:43.814Z,970.00
2024-04-19T09:20:43.803Z,978.00
2024-04-19T09:21:45.012Z,983.00
2024-04-19T09:22:43.502Z,986.00
2024-04-19T09:23:43.472Z,989.00
2024-04-19T09:24:43.884Z,1001.00
2024-04-19T09:25:44.610Z,1008.00
2024-04-19T09:26:43.488Z,1014.00
2024-04-19T09:27:43.510Z,1017.00
2024-04-19T09:28:43.562Z,1012.00
2024-04-19T09:29:43.817Z,1020.00
2024-04-19T09:30:43.714Z,1026.00
2024-04-19T09:31:44.438Z,1032.00
2024-04-19T09:32:43.970Z,1038.00
2024-04-19T09:33:43.910Z,1047.00
2024-04-19T09:34:43.888Z,850.00
2024-04-19T09:35:43.905Z,815.00
2024-04-19T09:36:43.940Z,759.00
2024-04-19T09:37:44.033Z,791.00
2024-04-19T09:38:43.993Z,800.00
2024-04-19T09:39:44.342Z,812.00
2024-04-19T09:40:44.886Z,830.00
2024-04-19T09:41:43.959Z,828.00
2024-04-19T09:42:45.043Z,810.00
2024-04-19T09:43:43.976Z,807.00
2024-04-19T09:44:44.338Z,818.00
2024-04-19T09:45:44.453Z,819.00
2024-04-19T09:46:44.141Z,826.00
2024-04-19T09:47:44.103Z,823.00
2024-04-19T09:48:44.513Z,811.00
2024-04-19T09:49:44.247Z,797.00
2024-04-19T09:50:44.170Z,804.00
2024-04-19T09:51:44.226Z,810.00
2024-04-19T09:52:44.162Z,818.00
2024-04-19T09:53:44.942Z,824.00
2024-04-19T09:54:44.265Z,807.00
2024-04-19T09:55:44.267Z,811.00
2024-04-19T09:56:44.258Z,857.00
2024-04-19T09:57:44.312Z,771.00
2024-04-19T09:58:44.889Z,783.00
2024-04-19T09:59:44.366Z,791.00
2024-04-19T10:00:44.498Z,784.00
2024-04-19T10:01:44.476Z,782.00
2024-04-19T10:02:44.568Z,780.00
2024-04-19T10:03:44.620Z,778.00
2024-04-19T10:04:44.607Z,787.00
2024-04-19T10:05:44.513Z,791.00
2024-04-19T10:06:45.436Z,799.00
2024-04-19T10:07:44.556Z,814.00
2024-04-19T10:08:44.550Z,826.00
2024-04-19T10:09:44.609Z,832.00
2024-04-19T10:10:44.879Z,841.00
2024-04-19T10:11:44.881Z,852.00
2024-04-19T10:12:44.689Z,867.00
2024-04-19T10:13:44.710Z,868.00
2024-04-19T10:14:44.736Z,877.00
2024-04-19T10:15:44.841Z,885.00
2024-04-19T10:16:44.826Z,888.00
2024-04-19T10:17:45.012Z,888.00
2024-04-19T10:18:45.174Z,894.00
2024-04-19T10:19:52.583Z,897.00
2024-04-19T10:20:46.062Z,898.00
2024-04-19T10:21:45.089Z,904.00
2024-04-19T10:22:45.063Z,912.00
2024-04-19T10:23:45.039Z,919.00
2024-04-19T10:24:45.118Z,940.00
2024-04-19T10:25:45.369Z,951.00
2024-04-19T10:26:45.253Z,964.00
2024-04-19T10:27:45.255Z,920.00
2024-04-19T10:28:45.201Z,797.00
2024-04-19T10:29:45.223Z,792.00
2024-04-19T10:30:45.230Z,784.00
2024-04-19T10:31:45.532Z,777.00
2024-04-19T10:32:45.294Z,774.00
2024-04-19T10:33:47.039Z,776.00
2024-04-19T10:34:45.390Z,773.00
2024-04-19T10:35:45.266Z,767.00
2024-04-19T10:36:45.371Z,762.00
2024-04-19T10:37:45.363Z,757.00
2024-04-19T10:38:45.308Z,750.00
2024-04-19T10:39:45.345Z,744.00
2024-04-19T10:40:45.421Z,736.00
2024-04-19T10:41:45.326Z,729.00
2024-04-19T10:42:45.404Z,721.00
2024-04-19T10:43:45.351Z,716.00
2024-04-19T10:44:45.351Z,712.00
2024-04-19T10:45:45.393Z,709.00
2024-04-19T10:46:45.411Z,702.00
2024-04-19T10:47:45.601Z,693.00
2024-04-19T10:48:45.433Z,684.00
2024-04-19T10:49:45.467Z,677.00
2024-04-19T10:50:45.407Z,674.00
2024-04-19T10:51:45.493Z,670.00
2024-04-19T10:52:45.449Z,664.00
2024-04-19T10:53:45.413Z,657.00
2024-04-19T10:54:46.762Z,652.00
2024-04-19T10:55:45.430Z,646.00
2024-04-19T10:56:45.435Z,643.00
2024-04-19T10:57:45.483Z,640.00
2024-04-19T10:58:45.425Z,637.00
2024-04-19T10:59:45.428Z,634.00
2024-04-19T11:00:45.476Z,628.00
2024-04-19T11:01:45.515Z,622.00
2024-04-19T11:02:45.481Z,618.00
2024-04-19T11:03:45.525Z,613.00
2024-04-19T11:04:45.622Z,612.00
2024-04-19T11:05:45.547Z,610.00
2024-04-19T11:06:45.602Z,609.00
2024-04-19T11:07:45.607Z,605.00
2024-04-19T11:08:45.573Z,602.00
2024-04-19T11:09:45.642Z,598.00
2024-04-19T11:10:45.587Z,597.00
2024-04-19T11:11:45.626Z,596.00
2024-04-19T11:12:45.651Z,598.00
2024-04-19T11:13:45.659Z,595.00
2024-04-19T11:14:45.702Z,591.00
2024-04-19T11:15:52.671Z,590.00
2024-04-19T11:16:46.694Z,590.00
2024-04-19T11:17:48.144Z,588.00
2024-04-19T11:18:45.802Z,588.00
2024-04-19T11:19:45.670Z,585.00
2024-04-19T11:20:50.500Z,583.00
2024-04-19T11:21:46.822Z,588.00
2024-04-19T11:22:45.674Z,586.00
2024-04-19T11:23:46.936Z,588.00
2024-04-19T11:24:45.703Z,594.00
2024-04-19T11:25:45.723Z,595.00
2024-04-19T11:26:45.675Z,595.00
2024-04-19T11:27:45.727Z,596.00
2024-04-19T11:28:45.719Z,595.00
2024-04-19T11:29:45.728Z,595.00
2024-04-19T11:30:45.769Z,592.00
2024-04-19T11:31:45.781Z,589.00
2024-04-19T11:32:45.803Z,590.00
2024-04-19T11:33:45.776Z,587.00
2024-04-19T11:34:45.759Z,584.00
2024-04-19T11:35:45.806Z,581.00
2024-04-19T11:36:45.823Z,578.00
2024-04-19T11:37:45.773Z,579.00
2024-04-19T11:38:45.830Z,577.00
2024-04-19T11:39:45.962Z,579.00
2024-04-19T11:40:45.841Z,577.00
2024-04-19T11:41:45.902Z,578.00
2024-04-19T11:42:45.928Z,580.00
2024-04-19T11:43:45.964Z,581.00
2024-04-19T11:44:45.866Z,582.00
2024-04-19T11:45:45.956Z,583.00
2024-04-19T11:46:45.880Z,582.00
2024-04-19T11:47:45.955Z,580.00
2024-04-19T11:48:45.961Z,581.00
2024-04-19T11:49:45.931Z,579.00
2024-04-19T11:50:45.908Z,577.00
2024-04-19T11:51:45.940Z,577.00
2024-04-19T11:52:46.028Z,578.00
2024-04-19T11:53:45.929Z,578.00
2024-04-19T11:54:45.991Z,579.00
2024-04-19T11:55:45.999Z,582.00
2024-04-19T11:56:45.947Z,581.00
2024-04-19T11:57:45.982Z,580.00
2024-04-19T11:58:45.955Z,576.00
2024-04-19T11:59:45.960Z,577.00
2024-04-19T12:00:46.120Z,576.00
2024-04-19T12:01:46.047Z,574.00
2024-04-19T12:02:46.038Z,573.00
2024-04-19T12:03:46.204Z,572.00
2024-04-19T12:04:46.248Z,570.00
2024-04-19T12:05:46.120Z,571.00
2024-04-19T12:06:46.129Z,570.00
2024-04-19T12:07:46.162Z,570.00
2024-04-19T12:08:46.201Z,570.00
2024-04-19T12:09:46.223Z,567.00
2024-04-19T12:10:46.232Z,566.00
2024-04-19T12:12:18.347Z,569.00
2024-04-19T12:14:33.168Z,571.00
2024-04-19T12:15:37.516Z,571.00
2024-04-19T12:16:20.504Z,570.00
2024-04-19T12:16:52.556Z,567.00
2024-04-19T12:17:47.457Z,569.00
2024-04-19T12:18:46.410Z,574.00
2024-04-19T12:19:46.471Z,581.00
2024-04-19T12:20:51.473Z,583.00
2024-04-19T12:22:53.600Z,583.00
2024-04-19T12:23:48.962Z,584.00
2024-04-19T12:25:46.961Z,582.00
2024-04-19T12:26:46.455Z,579.00
2024-04-19T12:27:46.474Z,576.00
2024-04-19T12:28:54.137Z,576.00
2024-04-19T12:29:47.370Z,576.00
2024-04-19T12:30:46.322Z,576.00
2024-04-19T12:31:46.285Z,578.00